Time;durP1;ratioP1;P1;durP2;ratioP2;P2;SDS_P1;SDS_P2;PMS_P1;PMS_P2;Temp;Humidity;BMP_temperature;BMP_pressure;BME280_temperature;BME280_humidity;BME280_pressure;Samples;Min_cycle;Max_cycle;Signal;HPM_P1;HPM_P2
2023/02/21 02:16:08;;;;;;;8.93;5.90;;;9.40;99.90;;;;;;5041709;28;20471;-71
2023/02/21 02:18:57;;;;;;;5.67;5.07;;;9.40;99.90;;;;;;5042226;28;20487;-72
2023/02/21 02:22:05;;;;;;;6.37;5.23;;;9.40;99.90;;;;;;5047659;28;20559;-71
2023/02/21 02:24:48;;;;;;;6.23;5.60;;;9.50;99.90;;;;;;5057305;28;20450;-72
2023/02/21 02:27:45;;;;;;;8.97;5.67;;;9.40;99.90;;;;;;5056654;28;20584;-72
2023/02/21 02:30:54;;;;;;;7.43;6.70;;;9.40;99.90;;;;;;5041942;28;20503;-72
2023/02/21 02:34:02;;;;;;;6.23;4.87;;;9.40;99.90;;;;;;5060792;28;20495;-71
2023/02/21 02:36:38;;;;;;;7.80;5.47;;;9.40;99.90;;;;;;5055189;28;20461;-71
2023/02/21 02:39:17;;;;;;;7.07;5.80;;;9.40;99.90;;;;;;5036428;28;20436;-72
2023/02/21 02:41:52;;;;;;;5.97;5.17;;;9.40;99.90;;;;;;5046074;28;20492;-71
2023/02/21 02:44:28;;;;;;;6.90;5.40;;;9.40;99.90;;;;;;5038797;28;20527;-72
2023/02/21 02:47:01;;;;;;;6.60;5.50;;;9.40;99.90;;;;;;5037859;28;20464;-72
2023/02/21 02:49:33;;;;;;;7.27;5.27;;;9.40;99.90;;;;;;5044605;28;20455;-72
2023/02/21 02:52:06;;;;;;;6.27;5.13;;;9.40;99.90;;;;;;5047717;28;20463;-72
2023/02/21 02:54:35;;;;;;;7.60;5.50;;;9.40;99.90;;;;;;5046717;28;20477;-72
2023/02/21 02:57:09;;;;;;;5.60;4.80;;;9.40;99.90;;;;;;5045656;28;20473;-71
2023/02/21 02:59:40;;;;;;;6.97;5.50;;;9.40;99.90;;;;;;5046929;28;20458;-71
2023/02/21 03:02:26;;;;;;;7.10;4.53;;;9.40;99.90;;;;;;5047414;28;20556;-70
2023/02/21 03:05:18;;;;;;;6.00;5.17;;;9.40;99.90;;;;;;5049459;28;20455;-72
2023/02/21 03:07:58;;;;;;;7.63;5.53;;;9.40;99.90;;;;;;5049154;28;20473;-71
2023/02/21 03:10:37;;;;;;;6.70;5.40;;;9.40;99.90;;;;;;5041678;28;20446;-71
2023/02/21 03:13:13;;;;;;;5.83;5.23;;;9.40;99.90;;;;;;5041874;28;20835;-71
2023/02/21 03:15:49;;;;;;;8.40;6.50;;;9.40;99.90;;;;;;5049967;28;20997;-71
2023/02/21 03:18:24;;;;;;;5.40;4.73;;;9.40;99.90;;;;;;5048317;28;20498;-71
2023/02/21 03:20:57;;;;;;;5.20;4.70;;;9.40;99.90;;;;;;5049825;28;20450;-71
2023/02/21 03:23:29;;;;;;;6.77;5.10;;;9.40;99.90;;;;;;5067593;28;20485;-72
2023/02/21 03:26:02;;;;;;;6.47;4.60;;;9.40;99.90;;;;;;5049749;28;20460;-71
2023/02/21 03:28:32;;;;;;;6.83;4.83;;;9.40;99.90;;;;;;5044491;28;20437;-71
2023/02/21 03:31:03;;;;;;;6.00;5.07;;;9.40;99.90;;;;;;5048359;28;20470;-71
2023/02/21 03:33:33;;;;;;;6.60;5.33;;;9.40;99.90;;;;;;5046300;28;20551;-71
2023/02/21 03:36:04;;;;;;;6.53;5.27;;;9.40;99.90;;;;;;5050428;28;20456;-71
2023/02/21 03:38:34;;;;;;;7.47;5.47;;;9.40;99.90;;;;;;5049012;28;20436;-71
2023/02/21 03:41:03;;;;;;;6.10;4.17;;;9.40;99.90;;;;;;5040891;28;20468;-71
2023/02/21 03:43:33;;;;;;;6.07;4.37;;;9.40;99.90;;;;;;5045636;28;20532;-71
2023/02/21 03:46:04;;;;;;;7.70;5.10;;;9.40;99.90;;;;;;5048212;28;20880;-71
2023/02/21 03:48:33;;;;;;;5.60;4.60;;;9.40;99.90;;;;;;5046420;28;20447;-72
2023/02/21 03:51:11;;;;;;;6.93;4.70;;;9.40;99.90;;;;;;5043353;28;20439;-72
2023/02/21 03:53:41;;;;;;;5.23;4.70;;;9.40;99.90;;;;;;5048106;28;20833;-71
2023/02/21 03:56:12;;;;;;;7.67;6.07;;;9.40;99.90;;;;;;5045870;28;20497;-72
2023/02/21 03:59:09;;;;;;;5.67;4.97;;;9.40;99.90;;;;;;5046837;28;20470;-71
2023/02/21 04:01:38;;;;;;;9.77;6.57;;;9.40;99.90;;;;;;5047351;28;20463;-72
2023/02/21 04:04:06;;;;;;;6.60;5.20;;;9.40;99.90;;;;;;5043156;28;20873;-71
2023/02/21 04:06:36;;;;;;;6.47;4.30;;;9.40;99.90;;;;;;5043391;28;20470;-72
2023/02/21 04:09:05;;;;;;;8.13;6.20;;;9.40;99.90;;;;;;5047545;28;20532;-72
2023/02/21 04:11:34;;;;;;;6.10;5.20;;;9.40;99.90;;;;;;5043206;28;20456;-72
2023/02/21 04:14:03;;;;;;;7.23;5.13;;;9.40;99.90;;;;;;5045660;28;20495;-71
2023/02/21 04:16:31;;;;;;;5.77;4.93;;;9.40;99.90;;;;;;5044133;28;20474;-72
2023/02/21 04:19:00;;;;;;;5.33;4.20;;;9.40;99.90;;;;;;5046093;28;20445;-72
2023/02/21 04:21:29;;;;;;;6.53;5.50;;;9.40;99.90;;;;;;5045562;28;20450;-72
2023/02/21 04:23:59;;;;;;;7.37;5.77;;;9.40;99.90;;;;;;5037593;28;20464;-72
2023/02/21 04:26:33;;;;;;;8.70;6.33;;;9.40;99.90;;;;;;5045803;28;20483;-72
2023/02/21 04:29:02;;;;;;;7.63;5.80;;;9.40;99.90;;;;;;5048757;28;20536;-72
2023/02/21 04:31:32;;;;;;;8.20;5.73;;;9.40;99.90;;;;;;5046142;28;20522;-72
2023/02/21 04:34:05;;;;;;;7.07;6.10;;;9.40;99.90;;;;;;5042897;28;20459;-72
2023/02/21 04:36:42;;;;;;;6.43;4.50;;;9.40;99.90;;;;;;5046452;28;20460;-72
2023/02/21 04:39:10;;;;;;;6.07;5.27;;;9.40;99.90;;;;;;5046238;28;20464;-72
2023/02/21 04:41:40;;;;;;;5.93;4.67;;;9.40;99.90;;;;;;5045824;28;20510;-72
2023/02/21 04:44:10;;;;;;;4.77;4.27;;;9.40;99.90;;;;;;5045791;28;20955;-72
2023/02/21 04:46:38;;;;;;;6.43;4.90;;;9.40;99.90;;;;;;5045551;28;21115;-72
2023/02/21 04:49:07;;;;;;;5.67;4.70;;;9.40;99.90;;;;;;5043627;28;20449;-72
2023/02/21 04:51:36;;;;;;;5.50;4.27;;;9.40;99.90;;;;;;5045208;28;20452;-69
2023/02/21 04:54:06;;;;;;;6.00;4.47;;;9.30;99.90;;;;;;5064423;28;20462;-72
2023/02/21 04:56:36;;;;;;;5.07;4.53;;;9.30;99.90;;;;;;5045387;28;21366;-71
2023/02/21 04:59:06;;;;;;;5.77;4.97;;;9.30;99.90;;;;;;5044906;28;20451;-72
2023/02/21 05:01:34;;;;;;;4.90;3.70;;;9.40;99.90;;;;;;5062930;28;20443;-71
2023/02/21 05:04:03;;;;;;;5.50;4.20;;;9.40;99.90;;;;;;5047618;28;21072;-71
2023/02/21 05:06:32;;;;;;;5.40;4.20;;;9.30;99.90;;;;;;5047970;28;20463;-72
2023/02/21 05:09:01;;;;;;;5.93;4.27;;;9.40;99.90;;;;;;5042847;28;20519;-72
2023/02/21 05:11:33;;;;;;;4.77;4.03;;;9.30;99.90;;;;;;5049483;28;20502;-71
2023/02/21 05:14:02;;;;;;;6.60;4.83;;;9.40;99.90;;;;;;5050134;28;20522;-71
2023/02/21 05:16:31;;;;;;;5.27;4.73;;;9.40;99.90;;;;;;5049014;28;20896;-71
2023/02/21 05:19:01;;;;;;;4.40;4.00;;;9.40;99.90;;;;;;5054139;28;20452;-72
2023/02/21 05:21:34;;;;;;;4.30;3.57;;;9.40;99.90;;;;;;5049235;28;20453;-72
2023/02/21 05:24:03;;;;;;;4.93;4.00;;;9.40;99.90;;;;;;5059396;28;20464;-71
2023/02/21 05:26:35;;;;;;;5.27;4.40;;;9.30;99.90;;;;;;5040004;28;20540;-72
2023/02/21 05:29:04;;;;;;;5.60;4.10;;;9.30;99.90;;;;;;5042631;28;20453;-72
2023/02/21 05:31:34;;;;;;;5.10;3.87;;;9.40;99.90;;;;;;5047853;28;20975;-71
2023/02/21 05:34:02;;;;;;;4.70;3.87;;;9.30;99.90;;;;;;5047709;28;20475;-72
2023/02/21 05:36:30;;;;;;;4.10;3.63;;;9.30;99.90;;;;;;5047781;28;21064;-72
2023/02/21 05:38:59;;;;;;;5.40;4.60;;;9.30;99.90;;;;;;5050723;28;20464;-71
2023/02/21 05:41:27;;;;;;;5.50;4.07;;;9.30;99.90;;;;;;5050023;28;20458;-72
2023/02/21 05:43:55;;;;;;;5.33;4.30;;;9.30;99.90;;;;;;5049972;28;20454;-72
2023/02/21 05:46:25;;;;;;;6.13;4.43;;;9.30;99.90;;;;;;5047461;28;20556;-72
2023/02/21 05:48:56;;;;;;;6.43;5.23;;;9.30;99.90;;;;;;5048252;28;21209;-72
2023/02/21 05:51:26;;;;;;;4.47;3.97;;;9.30;99.90;;;;;;5040634;28;20595;-72
2023/02/21 05:53:54;;;;;;;3.90;3.20;;;9.30;99.90;;;;;;5049365;28;21024;-72
2023/02/21 05:56:23;;;;;;;6.17;4.73;;;9.30;99.90;;;;;;5045320;28;20496;-72
2023/02/21 05:58:51;;;;;;;4.20;3.80;;;9.30;99.90;;;;;;5045882;28;20485;-71
2023/02/21 06:01:20;;;;;;;7.30;5.30;;;9.30;99.90;;;;;;5048332;28;20467;-71
2023/02/21 06:03:48;;;;;;;5.50;4.40;;;9.30;99.90;;;;;;5046642;28;20543;-72
2023/02/21 06:06:18;;;;;;;5.07;4.27;;;9.30;99.90;;;;;;5048157;28;20489;-72
2023/02/21 06:08:48;;;;;;;5.23;4.73;;;9.30;99.90;;;;;;5067908;28;21013;-72
2023/02/21 06:11:23;;;;;;;4.80;3.90;;;9.30;99.90;;;;;;5046764;28;20444;-72
2023/02/21 06:13:52;;;;;;;5.83;5.23;;;9.30;99.90;;;;;;5041428;28;20448;-72
2023/02/21 06:16:21;;;;;;;4.80;4.30;;;9.30;99.90;;;;;;5046799;28;20464;-71
2023/02/21 06:18:50;;;;;;;5.57;4.00;;;9.30;99.90;;;;;;5047273;28;20438;-72
2023/02/21 06:21:20;;;;;;;6.50;4.60;;;9.30;99.90;;;;;;5041294;28;20485;-71
2023/02/21 06:23:49;;;;;;;7.83;5.50;;;9.30;99.90;;;;;;5050050;28;20432;-71
2023/02/21 06:26:18;;;;;;;6.97;5.30;;;9.30;99.90;;;;;;5047348;28;21295;-72
2023/02/21 06:28:47;;;;;;;7.93;4.90;;;9.30;99.90;;;;;;5042302;28;20549;-70
2023/02/21 06:31:16;;;;;;;8.40;5.20;;;9.30;99.90;;;;;;5044342;28;20461;-71
2023/02/21 06:33:45;;;;;;;7.57;5.73;;;9.30;99.90;;;;;;5046538;28;20954;-71
2023/02/21 06:36:16;;;;;;;6.27;5.30;;;9.30;99.90;;;;;;5047809;28;21793;-71
2023/02/21 06:38:46;;;;;;;6.83;4.20;;;9.30;99.90;;;;;;5045294;28;20446;-71
2023/02/21 06:41:16;;;;;;;5.10;4.60;;;9.30;99.90;;;;;;5061673;28;20417;-71
2023/02/21 06:43:44;;;;;;;6.93;4.87;;;9.30;99.90;;;;;;5057961;28;20480;-71
2023/02/21 06:46:16;;;;;;;8.97;5.80;;;9.30;99.90;;;;;;5041350;28;20812;-71
2023/02/21 06:48:45;;;;;;;6.10;4.90;;;9.30;99.90;;;;;;5045262;28;20440;-71
2023/02/21 06:51:13;;;;;;;7.83;5.93;;;9.30;99.90;;;;;;5038044;28;20460;-71
2023/02/21 06:53:43;;;;;;;5.80;5.20;;;9.30;99.90;;;;;;5064085;28;20539;-72
2023/02/21 06:56:12;;;;;;;5.90;4.67;;;9.30;99.90;;;;;;5065744;28;21068;-70
2023/02/21 06:58:41;;;;;;;5.47;4.70;;;9.30;99.90;;;;;;5064257;28;20435;-71
2023/02/21 07:01:09;;;;;;;7.30;4.80;;;9.30;99.90;;;;;;5039028;28;20541;-72
2023/02/21 07:03:41;;;;;;;7.93;5.50;;;9.30;99.90;;;;;;5041062;28;20453;-72
2023/02/21 07:06:10;;;;;;;8.53;5.80;;;9.30;99.90;;;;;;5045766;28;20937;-72
2023/02/21 07:08:38;;;;;;;6.53;4.70;;;9.30;99.90;;;;;;5042244;28;20481;-72
2023/02/21 07:11:07;;;;;;;6.20;4.90;;;9.30;99.90;;;;;;5046182;28;21083;-71
2023/02/21 07:13:37;;;;;;;5.87;4.97;;;9.30;99.90;;;;;;5042046;28;20849;-71
2023/02/21 07:16:06;;;;;;;7.27;5.40;;;9.30;99.90;;;;;;5041205;28;20572;-72
2023/02/21 07:18:34;;;;;;;6.50;5.20;;;9.30;99.90;;;;;;5061174;28;20438;-71
2023/02/21 07:21:03;;;;;;;6.73;5.77;;;9.30;99.90;;;;;;5047415;28;20441;-72
2023/02/21 07:23:31;;;;;;;5.97;5.30;;;9.30;99.90;;;;;;5048937;28;20446;-72
2023/02/21 07:26:00;;;;;;;5.20;4.40;;;9.30;99.90;;;;;;5044675;28;20481;-72
2023/02/21 07:28:28;;;;;;;5.83;4.60;;;9.20;99.90;;;;;;5045498;28;20539;-72
2023/02/21 07:30:58;;;;;;;6.70;5.37;;;9.30;99.90;;;;;;5026733;28;20450;-71
2023/02/21 07:33:26;;;;;;;10.60;5.87;;;9.30;99.90;;;;;;5045460;28;20452;-72
2023/02/21 07:35:55;;;;;;;7.23;5.10;;;9.30;99.90;;;;;;5063674;28;20508;-71
2023/02/21 07:38:25;;;;;;;6.03;4.00;;;9.30;99.90;;;;;;5046978;28;20456;-70
2023/02/21 07:40:55;;;;;;;4.77;4.30;;;9.30;99.90;;;;;;5063900;28;20979;-71
2023/02/21 07:43:24;;;;;;;9.57;6.07;;;9.20;99.90;;;;;;5034237;28;21001;-71
2023/02/21 07:45:53;;;;;;;7.33;5.30;;;9.30;99.90;;;;;;5045770;28;20473;-71
2023/02/21 07:48:23;;;;;;;5.93;4.77;;;9.20;99.90;;;;;;5045651;28;20498;-70
2023/02/21 07:50:51;;;;;;;7.37;4.97;;;9.20;99.90;;;;;;5037579;28;20449;-71
2023/02/21 07:53:20;;;;;;;6.47;5.40;;;9.30;99.90;;;;;;5044491;28;20481;-71
2023/02/21 07:55:48;;;;;;;8.27;5.43;;;9.30;99.90;;;;;;5042456;28;20473;-72
2023/02/21 07:58:16;;;;;;;5.70;4.43;;;9.20;99.90;;;;;;5044709;28;20558;-71
2023/02/21 08:00:48;;;;;;;8.77;5.80;;;9.30;99.90;;;;;;5063847;28;20507;-71
2023/02/21 08:03:16;;;;;;;7.83;5.17;;;9.30;99.90;;;;;;5036703;28;20886;-71
2023/02/21 08:05:46;;;;;;;8.07;5.47;;;9.20;99.90;;;;;;5055219;28;20460;-71
2023/02/21 08:08:15;;;;;;;5.87;4.70;;;9.20;99.90;;;;;;5043646;28;21079;-71
2023/02/21 08:10:43;;;;;;;7.00;4.97;;;9.30;99.90;;;;;;5061982;28;20444;-71
2023/02/21 08:13:12;;;;;;;7.90;5.23;;;9.30;99.90;;;;;;5042904;28;20469;-71
2023/02/21 08:15:40;;;;;;;8.20;5.67;;;9.20;99.90;;;;;;5044231;28;20534;-71
2023/02/21 08:18:18;;;;;;;7.60;4.47;;;9.30;99.90;;;;;;5045008;28;20504;-71
2023/02/21 08:20:48;;;;;;;10.20;5.20;;;9.20;99.90;;;;;;5041413;28;20447;-71
2023/02/21 08:23:17;;;;;;;14.50;9.20;;;9.30;99.90;;;;;;5039625;28;20496;-69
2023/02/21 08:25:46;;;;;;;15.73;11.23;;;9.20;99.90;;;;;;5055701;28;20461;-72
2023/02/21 08:28:15;;;;;;;14.30;11.27;;;9.20;99.90;;;;;;5024476;28;20483;-72
2023/02/21 08:30:44;;;;;;;20.50;10.17;;;9.20;99.90;;;;;;5046267;28;20990;-71
2023/02/21 08:33:12;;;;;;;15.07;9.60;;;9.20;99.90;;;;;;5043269;28;20473;-72
2023/02/21 08:35:40;;;;;;;17.13;9.80;;;9.20;99.90;;;;;;5043747;28;20482;-70
2023/02/21 08:38:11;;;;;;;17.63;9.17;;;9.20;99.90;;;;;;5045898;28;20503;-70
2023/02/21 08:40:39;;;;;;;14.50;9.70;;;9.20;99.90;;;;;;5062918;28;20537;-70
2023/02/21 08:43:08;;;;;;;11.00;7.53;;;9.20;99.90;;;;;;5048525;28;20475;-71
2023/02/21 08:45:36;;;;;;;11.37;8.53;;;9.20;99.90;;;;;;5046470;28;20457;-71
2023/02/21 08:48:04;;;;;;;13.10;8.70;;;9.20;99.90;;;;;;5044933;28;20463;-71
2023/02/21 08:50:33;;;;;;;10.80;8.10;;;9.20;99.90;;;;;;5044336;28;21464;-70
2023/02/21 08:53:01;;;;;;;10.20;7.73;;;9.20;99.90;;;;;;5056050;28;20556;-70
2023/02/21 08:55:31;;;;;;;11.23;7.60;;;9.20;99.90;;;;;;5063509;28;21139;-70
2023/02/21 08:57:59;;;;;;;10.90;7.30;;;9.20;99.90;;;;;;5042574;28;21015;-71
2023/02/21 09:00:28;;;;;;;12.07;8.10;;;9.20;99.90;;;;;;5039257;28;20893;-71
2023/02/21 09:02:58;;;;;;;12.90;8.00;;;9.20;99.90;;;;;;5070577;28;20454;-71
2023/02/21 09:05:28;;;;;;;14.23;8.93;;;9.20;99.90;;;;;;5039667;28;20470;-71
2023/02/21 09:08:00;;;;;;;13.77;8.43;;;9.20;99.90;;;;;;5044970;28;20526;-70
2023/02/21 09:10:32;;;;;;;12.80;8.20;;;9.20;99.90;;;;;;5057285;28;20946;-70
2023/02/21 09:13:01;;;;;;;12.60;7.83;;;9.20;99.90;;;;;;5039860;28;20538;-71
2023/02/21 09:15:30;;;;;;;10.90;7.40;;;9.20;99.90;;;;;;5042437;28;20472;-71
2023/02/21 09:17:59;;;;;;;13.00;8.43;;;9.20;99.90;;;;;;5059456;28;20528;-70
2023/02/21 09:20:28;;;;;;;10.53;6.43;;;9.20;99.90;;;;;;5057720;28;20446;-71
2023/02/21 09:22:56;;;;;;;9.57;6.63;;;9.20;99.90;;;;;;5059908;28;21568;-71
2023/02/21 09:25:25;;;;;;;11.40;8.93;;;9.20;99.90;;;;;;5038051;28;20449;-71
2023/02/21 09:27:55;;;;;;;10.33;6.93;;;9.20;99.90;;;;;;5040574;28;20477;-71
2023/02/21 09:30:25;;;;;;;9.93;7.20;;;9.20;99.90;;;;;;5038775;28;20449;-70
2023/02/21 09:32:54;;;;;;;9.23;6.10;;;9.20;99.90;;;;;;5041518;28;20468;-71
2023/02/21 09:35:23;;;;;;;8.40;5.63;;;9.20;99.90;;;;;;5055671;28;21098;-71
2023/02/21 09:37:51;;;;;;;11.53;7.43;;;9.20;99.90;;;;;;5041064;28;20476;-71
2023/02/21 09:40:32;;;;;;;9.50;6.93;;;9.20;99.90;;;;;;5046920;28;20440;-71
2023/02/21 09:43:08;;;;;;;11.00;7.13;;;9.20;99.90;;;;;;5037563;28;20481;-70
2023/02/21 09:45:38;;;;;;;9.30;6.53;;;9.20;99.90;;;;;;5036558;28;20463;-71
2023/02/21 09:48:11;;;;;;;9.73;6.90;;;9.20;99.90;;;;;;5040059;28;20477;-71
2023/02/21 09:50:44;;;;;;;7.63;5.53;;;9.30;99.90;;;;;;5053419;28;20440;-71
2023/02/21 09:53:16;;;;;;;8.30;6.03;;;9.20;99.90;;;;;;5064116;28;20481;-71
2023/02/21 09:55:45;;;;;;;9.70;6.33;;;9.30;99.90;;;;;;5042651;28;20471;-71
2023/02/21 09:58:18;;;;;;;8.90;6.87;;;9.30;99.90;;;;;;5057982;28;20492;-71
2023/02/21 10:00:47;;;;;;;9.83;6.80;;;9.30;99.90;;;;;;5046827;28;20460;-70
2023/02/21 10:03:40;;;;;;;7.70;5.87;;;9.30;99.90;;;;;;5049396;28;20472;-71
2023/02/21 10:06:17;;;;;;;9.00;6.20;;;9.20;99.90;;;;;;5048636;28;20475;-71
2023/02/21 10:08:53;;;;;;;10.47;6.70;;;9.30;99.90;;;;;;5039145;28;20443;-71
2023/02/21 10:11:34;;;;;;;11.57;6.93;;;9.30;99.90;;;;;;5046665;28;20517;-71
2023/02/21 10:14:14;;;;;;;10.90;7.30;;;9.30;99.90;;;;;;5064226;28;20525;-71
2023/02/21 10:16:47;;;;;;;8.50;6.60;;;9.30;99.90;;;;;;5051756;28;20464;-70
2023/02/21 10:19:24;;;;;;;9.87;6.93;;;9.30;99.90;;;;;;5052414;28;20449;-71
2023/02/21 10:21:57;;;;;;;9.83;6.50;;;9.30;99.90;;;;;;5062585;28;21026;-71
2023/02/21 10:24:28;;;;;;;8.73;6.50;;;9.30;99.90;;;;;;5046064;28;20970;-71
2023/02/21 10:27:01;;;;;;;9.90;7.17;;;9.30;99.90;;;;;;5044818;28;20469;-71
2023/02/21 10:29:39;;;;;;;8.23;6.53;;;9.30;99.90;;;;;;5062084;28;20553;-71
2023/02/21 10:32:08;;;;;;;11.20;7.17;;;9.30;99.90;;;;;;5046967;28;20474;-71
2023/02/21 10:34:36;;;;;;;7.93;5.97;;;9.30;99.90;;;;;;5045925;28;20441;-71
2023/02/21 10:37:21;;;;;;;8.57;6.70;;;9.30;99.90;;;;;;5047971;28;20999;-71
2023/02/21 10:39:54;;;;;;;8.87;6.47;;;9.40;99.90;;;;;;5047459;28;20441;-71
2023/02/21 10:42:30;;;;;;;10.03;6.57;;;9.40;99.90;;;;;;5063238;28;20481;-71
2023/02/21 10:45:00;;;;;;;8.93;6.20;;;9.30;99.90;;;;;;5048184;28;20446;-71
2023/02/21 10:47:37;;;;;;;8.43;6.40;;;9.30;99.90;;;;;;5042309;28;20947;-71
2023/02/21 10:50:07;;;;;;;8.67;6.17;;;9.30;99.90;;;;;;5044449;28;20448;-71
2023/02/21 10:52:37;;;;;;;9.03;6.50;;;9.30;99.90;;;;;;5059797;28;20477;-70
2023/02/21 10:55:13;;;;;;;7.43;5.80;;;9.30;99.90;;;;;;5038812;28;20445;-71
2023/02/21 10:58:06;;;;;;;8.40;6.03;;;9.40;99.90;;;;;;5042813;28;20484;-71
2023/02/21 11:00:37;;;;;;;9.10;6.77;;;9.40;99.90;;;;;;5052769;28;20442;-70
2023/02/21 11:03:21;;;;;;;9.13;5.90;;;9.40;99.90;;;;;;5039353;28;20489;-71
2023/02/21 11:05:51;;;;;;;9.17;6.90;;;9.40;99.90;;;;;;5039428;28;20460;-71
2023/02/21 11:08:35;;;;;;;9.00;5.80;;;9.30;99.90;;;;;;5045709;28;20472;-71
2023/02/21 11:11:04;;;;;;;8.27;6.33;;;9.40;99.90;;;;;;5038948;28;20797;-71
2023/02/21 11:13:34;;;;;;;8.83;6.23;;;9.40;99.90;;;;;;5053586;28;20476;-70
2023/02/21 11:16:16;;;;;;;7.37;5.63;;;9.40;99.90;;;;;;5023343;28;21159;-71
2023/02/21 11:18:44;;;;;;;9.10;6.50;;;9.40;99.90;;;;;;5036699;28;20556;-71
2023/02/21 11:21:15;;;;;;;6.80;5.30;;;9.40;99.90;;;;;;5043481;28;20488;-71
2023/02/21 11:23:57;;;;;;;8.63;6.20;;;9.40;99.90;;;;;;5060733;28;20449;-70
2023/02/21 11:26:29;;;;;;;9.40;6.17;;;9.40;99.90;;;;;;5039527;28;20468;-71
2023/02/21 11:29:08;;;;;;;7.27;6.37;;;9.40;99.90;;;;;;5051005;28;20549;-71
2023/02/21 11:31:38;;;;;;;8.10;6.00;;;9.40;99.90;;;;;;5059504;28;20498;-71
2023/02/21 11:34:11;;;;;;;6.93;5.80;;;9.40;99.90;;;;;;5031764;28;20461;-70
2023/02/21 11:36:41;;;;;;;9.87;7.33;;;9.40;99.90;;;;;;5062616;28;20507;-72
2023/02/21 11:39:17;;;;;;;7.43;5.73;;;9.40;99.90;;;;;;5044044;28;20481;-72
2023/02/21 11:41:48;;;;;;;7.13;5.87;;;9.40;99.90;;;;;;5043634;28;20557;-72
2023/02/21 11:44:26;;;;;;;6.97;5.77;;;9.40;99.90;;;;;;5044388;28;20495;-73
2023/02/21 11:47:04;;;;;;;7.43;5.10;;;9.40;99.90;;;;;;5064373;28;20466;-72
2023/02/21 11:49:42;;;;;;;8.13;6.27;;;9.40;99.90;;;;;;5044798;28;20446;-72
2023/02/21 11:52:14;;;;;;;9.13;6.30;;;9.40;99.90;;;;;;5040205;28;21023;-72
2023/02/21 11:54:43;;;;;;;8.20;5.07;;;9.40;99.90;;;;;;5046199;28;20436;-72
2023/02/21 11:57:21;;;;;;;7.27;5.60;;;9.40;99.90;;;;;;5038905;28;20927;-72
2023/02/21 12:00:01;;;;;;;8.47;6.60;;;9.50;99.90;;;;;;5049099;28;20849;-72
2023/02/21 12:02:52;;;;;;;7.37;4.80;;;9.40;99.90;;;;;;5053857;28;21024;-72
2023/02/21 12:05:42;;;;;;;7.83;5.80;;;9.40;99.90;;;;;;5038980;28;21014;-72
2023/02/21 12:08:28;;;;;;;8.83;6.00;;;9.50;99.90;;;;;;5041778;28;20480;-72
2023/02/21 12:11:09;;;;;;;7.80;5.97;;;9.40;99.90;;;;;;5062724;28;20439;-72
2023/02/21 12:13:45;;;;;;;7.13;5.23;;;9.50;99.90;;;;;;5041966;28;20465;-72
2023/02/21 12:16:26;;;;;;;7.60;6.03;;;9.50;99.90;;;;;;5043158;28;20509;-73
2023/02/21 12:19:12;;;;;;;7.70;5.73;;;9.50;99.90;;;;;;5037201;28;20466;-72
2023/02/21 12:22:03;;;;;;;6.67;5.63;;;9.50;99.90;;;;;;5042606;28;20474;-72
2023/02/21 12:24:50;;;;;;;6.33;5.27;;;9.40;99.90;;;;;;5050484;28;20441;-72
2023/02/21 12:27:31;;;;;;;6.27;5.10;;;9.40;99.90;;;;;;5039463;28;20507;-72
2023/02/21 12:30:25;;;;;;;7.17;6.27;;;9.50;99.90;;;;;;5047092;28;20465;-72
2023/02/21 12:33:03;;;;;;;6.57;4.83;;;9.40;99.90;;;;;;5059094;28;20573;-72
2023/02/21 12:36:11;;;;;;;9.40;6.93;;;9.50;99.90;;;;;;5061055;28;20456;-69
2023/02/21 12:38:59;;;;;;;8.30;5.97;;;9.50;99.90;;;;;;5063425;28;20468;-71
2023/02/21 12:41:51;;;;;;;10.33;6.17;;;9.50;99.90;;;;;;5346355;22;20509;-73
2023/02/21 12:44:23;;;;;;;8.43;5.90;;;9.50;99.90;;;;;;5039089;28;20455;-73
2023/02/21 12:46:58;;;;;;;8.20;6.37;;;9.50;99.90;;;;;;5052207;28;20500;-73
2023/02/21 12:49:31;;;;;;;7.47;5.57;;;9.50;99.90;;;;;;5049841;28;20441;-72
2023/02/21 12:52:06;;;;;;;6.13;5.50;;;9.50;99.90;;;;;;5047254;28;20483;-73
2023/02/21 12:54:40;;;;;;;7.27;6.23;;;9.50;99.90;;;;;;5059725;28;20507;-73
2023/02/21 12:57:13;;;;;;;8.53;5.50;;;9.50;99.90;;;;;;5044201;28;20469;-73
2023/02/21 12:59:55;;;;;;;8.40;5.87;;;9.50;99.90;;;;;;5042388;28;20456;-73
2023/02/21 13:02:30;;;;;;;7.90;5.90;;;9.50;99.90;;;;;;5045955;28;20468;-73
2023/02/21 13:05:05;;;;;;;8.23;6.20;;;9.50;99.90;;;;;;5058124;28;20503;-72
2023/02/21 13:07:42;;;;;;;8.07;6.50;;;9.50;99.90;;;;;;5050069;28;20492;-73
2023/02/21 13:10:18;;;;;;;9.47;5.90;;;9.50;99.90;;;;;;5059808;28;21022;-72
2023/02/21 13:12:57;;;;;;;8.73;5.57;;;9.50;99.90;;;;;;5051007;28;20480;-73
2023/02/21 13:15:27;;;;;;;7.83;5.83;;;9.50;99.90;;;;;;5039697;28;20467;-72
2023/02/21 13:18:01;;;;;;;7.33;5.67;;;9.50;99.90;;;;;;5042449;28;20474;-73
2023/02/21 13:20:35;;;;;;;7.67;5.20;;;9.50;99.90;;;;;;5053229;28;20875;-74
2023/02/21 13:23:25;;;;;;;7.40;6.00;;;9.50;99.90;;;;;;5040211;28;20485;-73
2023/02/21 13:26:26;;;;;;;9.57;7.10;;;9.50;99.90;;;;;;5061833;28;21103;-73
2023/02/21 13:28:56;;;;;;;8.17;5.97;;;9.50;99.90;;;;;;5043726;28;21011;-73
2023/02/21 13:31:25;;;;;;;7.47;6.10;;;9.50;99.90;;;;;;5049905;28;20845;-73
2023/02/21 13:33:57;;;;;;;9.80;6.50;;;9.50;99.90;;;;;;5045863;28;20517;-73
2023/02/21 13:36:29;;;;;;;5.87;5.10;;;9.60;99.90;;;;;;5062249;28;20466;-73
2023/02/21 13:39:02;;;;;;;7.23;6.10;;;9.50;99.90;;;;;;5044849;28;20894;-73
2023/02/21 13:41:38;;;;;;;9.17;6.13;;;9.60;99.90;;;;;;5055769;28;20468;-73
2023/02/21 13:44:23;;;;;;;6.30;5.00;;;9.60;99.90;;;;;;5059783;28;20897;-71
2023/02/21 13:47:12;;;;;;;7.90;5.47;;;9.60;99.90;;;;;;5056516;28;21902;-73
2023/02/21 13:49:52;;;;;;;10.73;7.10;;;9.60;99.90;;;;;;5055436;28;20451;-73
2023/02/21 13:52:52;;;;;;;7.93;5.40;;;9.60;99.90;;;;;;5058019;28;20470;-72
2023/02/21 13:55:28;;;;;;;6.67;5.50;;;9.60;99.90;;;;;;5055090;28;21053;-73
2023/02/21 13:58:31;;;;;;;5.33;4.80;;;9.60;99.90;;;;;;5058696;28;21000;-73
2023/02/21 14:01:41;;;;;;;7.40;5.43;;;9.60;99.90;;;;;;4997501;28;20501;-73
2023/02/21 14:04:59;;;;;;;5.87;5.27;;;9.60;99.90;;;;;;5015337;28;20516;-73
2023/02/21 14:08:02;;;;;;;7.43;5.57;;;9.60;99.90;;;;;;5060321;28;20464;-73
2023/02/21 14:10:38;;;;;;;6.73;5.10;;;9.60;99.90;;;;;;5044406;28;20448;-73
2023/02/21 14:13:18;;;;;;;6.73;4.97;;;9.60;99.90;;;;;;5037071;28;20515;-73
2023/02/21 14:15:51;;;;;;;6.27;5.20;;;9.60;99.90;;;;;;5066270;28;20460;-73
2023/02/21 14:18:25;;;;;;;9.67;6.63;;;9.60;99.90;;;;;;5049171;28;20530;-73
2023/02/21 14:21:02;;;;;;;7.17;5.20;;;9.60;99.90;;;;;;5047224;28;20485;-73
2023/02/21 14:23:41;;;;;;;6.63;4.80;;;9.60;99.90;;;;;;5040167;28;20472;-73
2023/02/21 14:26:39;;;;;;;7.90;5.87;;;9.60;99.90;;;;;;5046274;28;20476;-73
2023/02/21 14:29:28;;;;;;;6.77;5.53;;;9.60;99.90;;;;;;5063610;28;20516;-73
2023/02/21 14:32:15;;;;;;;7.30;5.93;;;9.60;99.90;;;;;;5063342;28;20856;-73
2023/02/21 14:34:54;;;;;;;6.17;4.10;;;9.60;99.90;;;;;;5054711;28;20836;-73
2023/02/21 14:37:28;;;;;;;8.67;5.90;;;9.60;99.90;;;;;;5044923;28;21203;-73
2023/02/21 14:40:01;;;;;;;7.60;5.50;;;9.60;99.90;;;;;;5041636;28;20480;-73
2023/02/21 14:42:44;;;;;;;7.70;5.17;;;9.70;99.90;;;;;;5059030;28;20499;-73
2023/02/21 14:45:30;;;;;;;7.90;6.23;;;9.70;99.90;;;;;;5119914;22;20451;-72
2023/02/21 14:48:24;;;;;;;6.00;5.33;;;9.60;99.90;;;;;;5060351;28;20580;-73
2023/02/21 14:51:30;;;;;;;7.67;4.83;;;9.70;99.90;;;;;;5068421;28;20447;-73
2023/02/21 14:54:22;;;;;;;8.40;6.33;;;9.60;99.90;;;;;;5064350;28;21000;-72
2023/02/21 14:57:14;;;;;;;7.40;5.17;;;9.70;99.90;;;;;;5064029;28;20464;-73
2023/02/21 15:00:05;;;;;;;7.13;5.17;;;9.60;99.90;;;;;;5080475;28;20461;-73
2023/02/21 15:02:41;;;;;;;9.27;5.43;;;9.70;99.90;;;;;;5074307;28;20489;-73
2023/02/21 15:05:17;;;;;;;6.80;5.37;;;9.70;99.90;;;;;;5060221;28;20454;-73
2023/02/21 15:07:58;;;;;;;9.37;5.73;;;9.70;99.90;;;;;;5061099;28;20466;-73
2023/02/21 15:10:27;;;;;;;6.23;5.07;;;9.70;99.90;;;;;;5061349;28;20824;-72
2023/02/21 15:12:58;;;;;;;11.77;7.33;;;9.70;99.90;;;;;;5064092;28;20480;-72
2023/02/21 15:15:31;;;;;;;6.97;4.93;;;9.70;99.90;;;;;;5068465;22;20508;-44
2023/02/21 15:18:08;;;;;;;5.37;4.53;;;9.70;99.90;;;;;;5060151;28;20485;-45
2023/02/21 15:20:41;;;;;;;6.40;5.17;;;9.70;99.90;;;;;;5063978;28;20535;-44
2023/02/21 15:23:14;;;;;;;5.83;4.33;;;9.70;99.90;;;;;;5045517;28;20475;-44
2023/02/21 15:25:55;;;;;;;7.77;4.80;;;9.70;99.90;;;;;;5046481;28;20452;-44
2023/02/21 15:28:27;;;;;;;7.27;5.43;;;9.70;99.90;;;;;;5054514;28;20455;-43
2023/02/21 15:31:01;;;;;;;7.87;5.77;;;9.70;99.90;;;;;;5049642;28;20444;-44
2023/02/21 15:33:33;;;;;;;6.40;5.10;;;9.70;99.90;;;;;;5060515;28;20566;-43
2023/02/21 15:36:05;;;;;;;6.20;4.97;;;9.70;99.90;;;;;;5051097;28;20433;-45
2023/02/21 15:38:38;;;;;;;8.40;5.43;;;9.70;99.90;;;;;;5064579;28;21248;-44
2023/02/21 15:41:10;;;;;;;5.83;4.80;;;9.70;99.90;;;;;;5062897;28;20622;-44
2023/02/21 15:43:47;;;;;;;6.07;4.27;;;9.70;99.90;;;;;;5044953;28;20474;-44
2023/02/21 15:46:21;;;;;;;7.33;5.57;;;9.70;99.90;;;;;;5045376;28;20456;-44
2023/02/21 15:48:51;;;;;;;6.50;5.30;;;9.70;99.90;;;;;;5045499;28;20795;-44